NCAR-RAP Real-Time Weather Data

Output produced by METARs form (24 April 2018  16:23 UTC)
found at http://weather.rap.ucar.edu/surface/
 
RJFU 241238Z 35010KT 9999 FEW010 SCT035 BKN080 15/13 Q1005 RMK 1CU010 3CU035 6AC080 A2969
RJFU 241200Z 35020KT 9999 FEW010 BKN015 BKN035 15/13 Q1005
RJFU 241129Z 35018KT 6000 -SHRA FEW005 SCT015 BKN025 15/14 Q1005 RMK 1ST005 3CU015 7CU025 A2968
RJFU 241123Z 36018KT 4500 -SHRA BR FEW005 SCT010 BKN025 15/14 Q1004 RMK 1ST005 3CU010 7CU025 A2967
RJFU 241100Z 36019KT 3000 SHRA BR FEW005 SCT010 BKN025 15/14 Q1004
RJFU 241011Z 34018KT 3000 SHRA BR FEW005 BKN010 BKN020 15/15 Q1003 RMK 1ST005 5CU010 7CU020 A2964
RJFU 241000Z 34018KT 3500 -SHRA BR FEW005 BKN010 BKN015 16/15 Q1003
RJFU 240900Z 32016KT 4000 -SHRA BR FEW005 BKN010 BKN015 16/16 Q1002
RJFU 240826Z 33013KT 4000 -SHRA BR FEW005 SCT010 BKN015 16/16 Q1002 RMK 1ST005 4CU010 7CU015 A2961
RJFU 240800Z 34012KT 3000 SHRA BR FEW003 BKN010 BKN015 17/16 Q1002
RJFU 240748Z 34013KT 4000 -SHRA BR FEW003 SCT010 BKN015 17/16 Q1002 RMK 1ST003 3CU010 7CU015 A2960
RJFU 240700Z 35013KT 3000 SHRA BR FEW003 SCT005 BKN010 18/17 Q1002
RJFU 240639Z 34010KT 2500 SHRA BR FEW002 BKN005 BKN010 18/18 Q1002 RMK 1ST002 5ST005 7CU010 A2961
RJFU 240628Z 34009KT 2000 +SHRA BR FEW002 BKN005 BKN010 18/18 Q1003 RMK 2ST002 6ST005 7CU010 A2962
RJFU 240621Z 35007KT 3000 SHRA BR FEW002 BKN005 BKN010 18/18 Q1003 RMK 2ST002 5ST005 7CU010 A2962
RJFU 240614Z 06003KT 350V150 2500 R32/1400VP1800U +SHRA BR FEW002 BKN005 BKN010 19/19 Q1003 RMK 1ST002 5ST005 7CU010 A2962
RJFU 240604Z VRB01KT 3000 SHRA BR FEW005 BKN007 BKN010 21/20 Q1003 RMK 1ST005 5ST007 7CU010 A2962
RJFU 240600Z VRB01KT 4000 SHRA BR FEW005 SCT008 BKN010 21/20 Q1003
RJFU 240500Z VRB02KT 9999 -SHRA FEW008 BKN015 BKN020 21/20 Q1004
RJFU 240400Z 17007KT 140V210 9999 -SHRA FEW005 SCT010 BKN015 22/20 Q1004
RJFU 240300Z 14005KT 100V170 9999 -SHRA FEW005 BKN015 BKN020 21/20 Q1005
RJFU 240200Z VRB02KT 8000 -SHRA FEW005 SCT020 BKN025 20/19 Q1006
RJFU 240149Z VRB01KT 6000 -SHRA FEW005 SCT015 BKN025 20/19 Q1006 RMK 1ST005 3CU015 5CU025 A2973
RJFU 240100Z 24007KT 5000 SHRA BR FEW008 SCT020 BKN025 20/19 Q1006
RJFU 240033Z 24015KT 200V270 3000 SHRA BR FEW006 SCT015 BKN020 20/19 Q1007 RMK 1ST006 3CU015 7CU020 A2974
RJFU 240023Z 22013KT 3000 +SHRA BR FEW006 SCT015 BKN020 21/19 Q1006 RMK 1ST006 3CU015 7CU020 A2973 P/RR
RJFU 240003Z 17021G31KT 4000 SHRA BR FEW006 SCT015 BKN020 21/19 Q1006 RMK 1ST006 3CU015 6CU020 A2971
RJFU 240000Z 17022KT 4000 R32/1400VP1800U SHRA BR FEW006 SCT015 BKN020 21/19 Q1006
RJFU 232348Z 17022G36KT 3500 R32/0750VP1800U +SHRA BR FEW005 SCT015 BKN020 21/19 Q1005 RMK 1ST005 4CU015 7CU020 A2970
RJFU 232345Z 17022KT 3500 R32/0750VP1800D +SHRA BR FEW005 SCT015 BKN020 20/19 Q1005 RMK 1ST005 4CU015 7CU020 A2970
RJFU 232336Z 17021G31KT 3000 +SHRA BR FEW007 SCT015 BKN020 21/19 Q1005 RMK 1ST007 3CU015 5CU020 A2970
RJFU 232324Z 16021G32KT 6000 R32/1300VP1800U SHRA FEW007 SCT015 BKN020 20/19 Q1006 RMK 1ST007 3CU015 5CU020 A2971
RJFU 232306Z 16020G31KT 4000 SHRA BR FEW005 SCT015 BKN020 20/19 Q1006 RMK 1ST005 4CU015 6CU020 A2971
RJFU 232300Z 15020KT 4000 R32/0800VP1800U SHRA BR FEW005 BKN015 BKN020 20/19 Q1006
RJFU 232216Z 14018KT 7000 -SHRA FEW005 SCT020 BKN025 18/18 Q1006 RMK 1ST005 4CU020 7CU025 A2973
RJFU 232212Z 14019KT 6000 R32/1800U SHRA FEW005 SCT020 BKN025 18/18 Q1006 RMK 1ST005 3CU020 6CU025 A2972
RJFU 232200Z 14020KT 4000 SHRA BR FEW007 SCT015 BKN025 19/18 Q1006
RJFU 232146Z 14020KT 4000 SHRA BR FEW007 SCT015 BKN025 18/18 Q1006 RMK 1ST007 3CU015 5CU025 A2972
RJFU 232126Z 13018KT 7000 -SHRA FEW008 BKN020 BKN030 19/18 Q1006 RMK 1ST008 5CU020 7CU030 A2972
RJFU 232120Z 13017KT 5000 R32/1400VP1800U SHRA BR FEW008 BKN020 BKN030 19/18 Q1006 RMK 1ST008 5CU020 7CU030 A2972
RJFU 232110Z 13015KT 4000 R32/1300VP1800N SHRA BR FEW010 BKN020 BKN030 19/18 Q1006 RMK 2CU010 5CU020 7CU030 A2973
RJFU 231200Z 14010KT 9999 -RA FEW030 BKN040 BKN070 20/17 Q1012
RJFU 231100Z 12010KT 9999 -RA FEW030 BKN040 BKN070 20/17 Q1012
RJFU 231000Z 14010KT 9999 FEW040 BKN050 BKN070 21/17 Q1012
RJFU 230900Z 16008KT 9999 FEW040 SCT060 BKN120 22/17 Q1012
RJFU 230800Z 15012KT 9999 FEW030 SCT040 BKN070 22/16 Q1012
RJFU 230700Z 15011KT 9999 FEW030 SCT040 BKN060 23/16 Q1012
RJFU 230600Z 14011KT 9999 FEW030 BKN040 BKN050 22/17 Q1013
RJFU 230500Z 14011KT 9999 FEW030 BKN045 BKN120 23/17 Q1013
RJFU 230400Z 14012KT 9999 FEW035 SCT040 BKN120 24/17 Q1014
RJFU 230300Z 14014KT 9999 FEW035 BKN040 BKN060 22/16 Q1015
RJFU 230200Z 14012KT 9999 FEW035 BKN060 BKN130 22/16 Q1016
RJFU 230100Z 14012KT 9999 FEW035 SCT070 BKN140 21/16 Q1016
RJFU 230000Z 14011KT 9999 FEW035 SCT045 BKN070 21/17 Q1016
RJFU 222300Z 14010KT 9999 FEW035 BKN045 19/16 Q1016
RJFU 222200Z 16009KT 9999 FEW030 SCT035 BKN080 19/16 Q1016
RJFU 222110Z 16009KT 9999 FEW040 BKN070 BKN100 18/17 Q1016 RMK 1SC040 5AC070 7AC100 A3001
RJFU 221200Z 27007KT 9999 SCT035 BKN050 20/16 Q1017
RJFU 221100Z 29005KT CAVOK 20/15 Q1016
RJFU 221000Z 27008KT CAVOK 21/16 Q1016
RJFU 220900Z 26006KT 9999 FEW040 SCT/// 23/15 Q1016
RJFU 220800Z 26008KT 9999 FEW040 SCT/// 24/15 Q1016
RJFU 220700Z 26008KT 9999 FEW040 SCT/// 26/15 Q1016
RJFU 220600Z 26010KT 9999 FEW040 SCT060 25/15 Q1016
RJFU 220500Z 28009KT 9999 FEW040 SCT/// 25/14 Q1017